sensor_id;sensor_type;location;lat;lon;timestamp;temperature;humidity
70676;DHT22;59069;52.242;20.900;2023-07-09T00:00:17;20.60;52.60
70676;DHT22;59069;52.242;20.900;2023-07-09T00:02:44;20.54;52.65
70676;DHT22;59069;52.242;20.900;2023-07-09T00:05:14;20.52;52.80
70676;DHT22;59069;52.242;20.900;2023-07-09T00:07:40;20.49;52.97
70676;DHT22;59069;52.242;20.900;2023-07-09T00:10:15;20.43;53.19
70676;DHT22;59069;52.242;20.900;2023-07-09T00:12:40;20.40;53.29
70676;DHT22;59069;52.242;20.900;2023-07-09T00:15:06;20.37;53.42
70676;DHT22;59069;52.242;20.900;2023-07-09T00:17:35;20.37;53.59
70676;DHT22;59069;52.242;20.900;2023-07-09T00:20:02;20.36;53.62
70676;DHT22;59069;52.242;20.900;2023-07-09T00:22:29;20.32;53.74
70676;DHT22;59069;52.242;20.900;2023-07-09T00:24:55;20.26;53.96
70676;DHT22;59069;52.242;20.900;2023-07-09T00:27:23;20.25;54.15
70676;DHT22;59069;52.242;20.900;2023-07-09T00:29:51;20.21;54.28
70676;DHT22;59069;52.242;20.900;2023-07-09T00:32:18;20.15;54.38
70676;DHT22;59069;52.242;20.900;2023-07-09T00:34:49;20.11;54.52
70676;DHT22;59069;52.242;20.900;2023-07-09T00:37:17;20.06;54.70
70676;DHT22;59069;52.242;20.900;2023-07-09T00:39:43;20.05;54.78
70676;DHT22;59069;52.242;20.900;2023-07-09T00:42:20;19.99;54.91
70676;DHT22;59069;52.242;20.900;2023-07-09T00:44:54;19.99;54.96
70676;DHT22;59069;52.242;20.900;2023-07-09T00:49:46;19.99;54.98
70676;DHT22;59069;52.242;20.900;2023-07-09T00:52:25;19.95;55.07
70676;DHT22;59069;52.242;20.900;2023-07-09T00:54:53;19.94;55.19
70676;DHT22;59069;52.242;20.900;2023-07-09T00:57:22;19.91;55.26
70676;DHT22;59069;52.242;20.900;2023-07-09T00:59:53;19.91;55.29
70676;DHT22;59069;52.242;20.900;2023-07-09T01:02:21;19.88;55.43
70676;DHT22;59069;52.242;20.900;2023-07-09T01:04:51;19.86;55.55
70676;DHT22;59069;52.242;20.900;2023-07-09T01:07:17;19.81;55.65
70676;DHT22;59069;52.242;20.900;2023-07-09T01:09:45;19.79;55.78
70676;DHT22;59069;52.242;20.900;2023-07-09T01:12:11;19.74;55.93
70676;DHT22;59069;52.242;20.900;2023-07-09T01:14:37;19.77;56.07
70676;DHT22;59069;52.242;20.900;2023-07-09T01:17:05;19.71;56.18
70676;DHT22;59069;52.242;20.900;2023-07-09T01:19:38;19.68;56.37
70676;DHT22;59069;52.242;20.900;2023-07-09T01:22:14;19.64;56.48
70676;DHT22;59069;52.242;20.900;2023-07-09T01:27:21;19.57;56.66
70676;DHT22;59069;52.242;20.900;2023-07-09T01:29:46;19.53;56.88
70676;DHT22;59069;52.242;20.900;2023-07-09T01:32:18;19.49;56.96
70676;DHT22;59069;52.242;20.900;2023-07-09T01:34:46;19.49;57.22
70676;DHT22;59069;52.242;20.900;2023-07-09T01:37:16;19.49;57.43
70676;DHT22;59069;52.242;20.900;2023-07-09T01:39:41;19.44;57.50
70676;DHT22;59069;52.242;20.900;2023-07-09T01:42:07;19.40;57.52
70676;DHT22;59069;52.242;20.900;2023-07-09T01:44:34;19.38;57.51
70676;DHT22;59069;52.242;20.900;2023-07-09T01:47:01;19.37;57.59
70676;DHT22;59069;52.242;20.900;2023-07-09T01:49:29;19.33;57.76
70676;DHT22;59069;52.242;20.900;2023-07-09T01:51:59;19.28;57.76
70676;DHT22;59069;52.242;20.900;2023-07-09T01:54:29;19.26;57.91
70676;DHT22;59069;52.242;20.900;2023-07-09T01:57:13;19.24;58.13
70676;DHT22;59069;52.242;20.900;2023-07-09T01:59:38;19.20;58.11
70676;DHT22;59069;52.242;20.900;2023-07-09T02:02:06;19.17;58.19
70676;DHT22;59069;52.242;20.900;2023-07-09T02:04:32;19.13;58.39
70676;DHT22;59069;52.242;20.900;2023-07-09T02:06:57;19.10;58.43
70676;DHT22;59069;52.242;20.900;2023-07-09T02:09:23;19.10;58.56
70676;DHT22;59069;52.242;20.900;2023-07-09T02:11:48;19.06;58.75
70676;DHT22;59069;52.242;20.900;2023-07-09T02:14:13;19.06;58.79
70676;DHT22;59069;52.242;20.900;2023-07-09T02:16:39;19.06;58.76
70676;DHT22;59069;52.242;20.900;2023-07-09T02:19:04;19.00;58.87
70676;DHT22;59069;52.242;20.900;2023-07-09T02:21:31;19.00;58.99
70676;DHT22;59069;52.242;20.900;2023-07-09T02:23:56;18.99;59.05
70676;DHT22;59069;52.242;20.900;2023-07-09T02:26:22;18.96;59.15
70676;DHT22;59069;52.242;20.900;2023-07-09T02:28:47;18.96;59.16
70676;DHT22;59069;52.242;20.900;2023-07-09T02:31:12;18.92;59.25
70676;DHT22;59069;52.242;20.900;2023-07-09T02:33:39;18.88;59.30
70676;DHT22;59069;52.242;20.900;2023-07-09T02:36:05;18.86;59.42
70676;DHT22;59069;52.242;20.900;2023-07-09T02:38:30;18.85;59.51
70676;DHT22;59069;52.242;20.900;2023-07-09T02:40:56;18.83;59.54
70676;DHT22;59069;52.242;20.900;2023-07-09T02:43:21;18.81;59.65
70676;DHT22;59069;52.242;20.900;2023-07-09T02:45:46;18.81;59.70
70676;DHT22;59069;52.242;20.900;2023-07-09T02:48:12;18.76;59.73
70676;DHT22;59069;52.242;20.900;2023-07-09T02:50:37;18.77;59.83
70676;DHT22;59069;52.242;20.900;2023-07-09T02:53:02;18.76;59.91
70676;DHT22;59069;52.242;20.900;2023-07-09T02:55:28;18.76;59.93
70676;DHT22;59069;52.242;20.900;2023-07-09T02:57:54;18.75;60.03
70676;DHT22;59069;52.242;20.900;2023-07-09T03:00:20;18.73;60.06
70676;DHT22;59069;52.242;20.900;2023-07-09T03:02:45;18.76;60.15
70676;DHT22;59069;52.242;20.900;2023-07-09T03:05:11;18.73;60.08
70676;DHT22;59069;52.242;20.900;2023-07-09T03:07:36;18.75;60.06
70676;DHT22;59069;52.242;20.900;2023-07-09T03:10:02;18.72;60.28
70676;DHT22;59069;52.242;20.900;2023-07-09T03:12:27;18.71;60.43
70676;DHT22;59069;52.242;20.900;2023-07-09T03:14:52;18.75;60.42
70676;DHT22;59069;52.242;20.900;2023-07-09T03:17:18;18.73;60.47
70676;DHT22;59069;52.242;20.900;2023-07-09T03:19:43;18.75;60.45
70676;DHT22;59069;52.242;20.900;2023-07-09T03:22:09;18.73;60.44
70676;DHT22;59069;52.242;20.900;2023-07-09T03:24:34;18.76;60.55
70676;DHT22;59069;52.242;20.900;2023-07-09T03:26:59;18.73;60.54
70676;DHT22;59069;52.242;20.900;2023-07-09T03:29:25;18.77;60.64
70676;DHT22;59069;52.242;20.900;2023-07-09T03:31:50;18.79;60.69
70676;DHT22;59069;52.242;20.900;2023-07-09T03:34:15;18.81;60.58
70676;DHT22;59069;52.242;20.900;2023-07-09T03:36:41;18.83;60.55
70676;DHT22;59069;52.242;20.900;2023-07-09T03:39:06;18.85;60.53
70676;DHT22;59069;52.242;20.900;2023-07-09T03:41:32;18.86;60.35
70676;DHT22;59069;52.242;20.900;2023-07-09T03:43:58;18.86;60.45
70676;DHT22;59069;52.242;20.900;2023-07-09T03:46:23;18.88;60.40
70676;DHT22;59069;52.242;20.900;2023-07-09T03:48:48;18.91;60.36
70676;DHT22;59069;52.242;20.900;2023-07-09T03:51:16;18.92;60.32
70676;DHT22;59069;52.242;20.900;2023-07-09T03:53:41;18.93;60.35
70676;DHT22;59069;52.242;20.900;2023-07-09T03:56:07;18.96;60.22
70676;DHT22;59069;52.242;20.900;2023-07-09T03:58:32;18.93;60.16
70676;DHT22;59069;52.242;20.900;2023-07-09T04:00:57;18.99;60.15
70676;DHT22;59069;52.242;20.900;2023-07-09T04:03:23;19.03;60.15
70676;DHT22;59069;52.242;20.900;2023-07-09T04:05:49;19.09;60.00
70676;DHT22;59069;52.242;20.900;2023-07-09T04:08:15;19.10;59.96
70676;DHT22;59069;52.242;20.900;2023-07-09T04:10:40;19.17;59.83
70676;DHT22;59069;52.242;20.900;2023-07-09T04:13:05;19.23;59.75
70676;DHT22;59069;52.242;20.900;2023-07-09T04:15:32;19.23;59.49
70676;DHT22;59069;52.242;20.900;2023-07-09T04:17:58;19.30;59.25
70676;DHT22;59069;52.242;20.900;2023-07-09T04:20:23;19.35;59.18
70676;DHT22;59069;52.242;20.900;2023-07-09T04:22:49;19.43;58.95
70676;DHT22;59069;52.242;20.900;2023-07-09T04:25:15;19.50;58.78
70676;DHT22;59069;52.242;20.900;2023-07-09T04:27:40;19.51;58.42
70676;DHT22;59069;52.242;20.900;2023-07-09T04:30:10;19.57;58.28
70676;DHT22;59069;52.242;20.900;2023-07-09T04:32:37;19.61;57.84
70676;DHT22;59069;52.242;20.900;2023-07-09T04:35:02;19.68;57.66
70676;DHT22;59069;52.242;20.900;2023-07-09T04:37:30;19.73;57.38
70676;DHT22;59069;52.242;20.900;2023-07-09T04:39:56;19.75;57.08
70676;DHT22;59069;52.242;20.900;2023-07-09T04:42:21;19.75;56.94
70676;DHT22;59069;52.242;20.900;2023-07-09T04:44:47;19.74;56.99
70676;DHT22;59069;52.242;20.900;2023-07-09T04:47:12;19.79;56.80
70676;DHT22;59069;52.242;20.900;2023-07-09T04:49:37;19.82;56.80
70676;DHT22;59069;52.242;20.900;2023-07-09T04:52:03;19.89;56.70
70676;DHT22;59069;52.242;20.900;2023-07-09T04:54:29;19.98;56.57
70676;DHT22;59069;52.242;20.900;2023-07-09T04:56:55;20.02;56.11
70676;DHT22;59069;52.242;20.900;2023-07-09T04:59:21;20.06;55.83
70676;DHT22;59069;52.242;20.900;2023-07-09T05:01:47;20.12;55.82
70676;DHT22;59069;52.242;20.900;2023-07-09T05:04:12;20.18;55.71
70676;DHT22;59069;52.242;20.900;2023-07-09T05:06:38;20.28;55.54
70676;DHT22;59069;52.242;20.900;2023-07-09T05:09:04;20.36;55.52
70676;DHT22;59069;52.242;20.900;2023-07-09T05:13:57;20.56;55.04
70676;DHT22;59069;52.242;20.900;2023-07-09T05:16:22;20.64;54.91
70676;DHT22;59069;52.242;20.900;2023-07-09T05:18:48;20.74;54.70
70676;DHT22;59069;52.242;20.900;2023-07-09T05:21:13;20.83;54.38
70676;DHT22;59069;52.242;20.900;2023-07-09T05:23:38;20.88;54.15
70676;DHT22;59069;52.242;20.900;2023-07-09T05:26:04;21.00;53.99
70676;DHT22;59069;52.242;20.900;2023-07-09T05:28:30;21.04;53.79
70676;DHT22;59069;52.242;20.900;2023-07-09T05:30:58;21.11;53.34
70676;DHT22;59069;52.242;20.900;2023-07-09T05:33:23;21.15;53.28
70676;DHT22;59069;52.242;20.900;2023-07-09T05:35:49;21.21;53.43
70676;DHT22;59069;52.242;20.900;2023-07-09T05:38:15;21.27;52.92
70676;DHT22;59069;52.242;20.900;2023-07-09T05:40:41;21.34;52.87
70676;DHT22;59069;52.242;20.900;2023-07-09T05:43:07;21.41;52.72
70676;DHT22;59069;52.242;20.900;2023-07-09T05:45:33;21.46;52.49
70676;DHT22;59069;52.242;20.900;2023-07-09T05:47:59;21.52;52.08
70676;DHT22;59069;52.242;20.900;2023-07-09T05:50:25;21.56;51.88
70676;DHT22;59069;52.242;20.900;2023-07-09T05:52:50;21.62;51.61
70676;DHT22;59069;52.242;20.900;2023-07-09T05:55:15;21.65;51.24
70676;DHT22;59069;52.242;20.900;2023-07-09T05:57:41;21.71;51.20
70676;DHT22;59069;52.242;20.900;2023-07-09T06:00:07;21.72;50.55
70676;DHT22;59069;52.242;20.900;2023-07-09T06:02:34;21.72;50.20
70676;DHT22;59069;52.242;20.900;2023-07-09T06:05:00;21.69;49.94
70676;DHT22;59069;52.242;20.900;2023-07-09T06:07:25;21.66;49.91
70676;DHT22;59069;52.242;20.900;2023-07-09T06:09:50;21.66;50.02
70676;DHT22;59069;52.242;20.900;2023-07-09T06:12:17;21.67;50.24
70676;DHT22;59069;52.242;20.900;2023-07-09T06:14:47;21.66;50.00
70676;DHT22;59069;52.242;20.900;2023-07-09T06:17:12;21.65;49.96
70676;DHT22;59069;52.242;20.900;2023-07-09T06:19:38;21.62;50.15
70676;DHT22;59069;52.242;20.900;2023-07-09T06:22:04;21.61;50.29
70676;DHT22;59069;52.242;20.900;2023-07-09T06:24:30;21.67;50.65
70676;DHT22;59069;52.242;20.900;2023-07-09T06:26:56;21.74;50.54
70676;DHT22;59069;52.242;20.900;2023-07-09T06:29:21;21.76;50.44
70676;DHT22;59069;52.242;20.900;2023-07-09T06:31:46;21.76;50.30
70676;DHT22;59069;52.242;20.900;2023-07-09T06:34:12;21.82;50.52
70676;DHT22;59069;52.242;20.900;2023-07-09T06:36:38;21.89;50.77
70676;DHT22;59069;52.242;20.900;2023-07-09T06:39:03;21.95;50.26
70676;DHT22;59069;52.242;20.900;2023-07-09T06:41:29;21.97;50.46
70676;DHT22;59069;52.242;20.900;2023-07-09T06:43:54;21.97;50.46
70676;DHT22;59069;52.242;20.900;2023-07-09T06:46:20;22.06;50.79
70676;DHT22;59069;52.242;20.900;2023-07-09T06:48:46;22.16;50.70
70676;DHT22;59069;52.242;20.900;2023-07-09T06:51:11;22.30;50.81
70676;DHT22;59069;52.242;20.900;2023-07-09T06:53:37;22.40;50.17
70676;DHT22;59069;52.242;20.900;2023-07-09T06:56:03;22.43;49.71
70676;DHT22;59069;52.242;20.900;2023-07-09T06:58:30;22.43;49.49
70676;DHT22;59069;52.242;20.900;2023-07-09T07:01:03;22.51;49.70
70676;DHT22;59069;52.242;20.900;2023-07-09T07:03:31;22.57;49.02
70676;DHT22;59069;52.242;20.900;2023-07-09T07:05:57;22.51;48.74
70676;DHT22;59069;52.242;20.900;2023-07-09T07:08:24;22.57;49.47
70676;DHT22;59069;52.242;20.900;2023-07-09T07:10:54;22.67;49.17
70676;DHT22;59069;52.242;20.900;2023-07-09T07:13:27;22.75;48.71
70676;DHT22;59069;52.242;20.900;2023-07-09T07:15:52;22.95;48.79
70676;DHT22;59069;52.242;20.900;2023-07-09T07:18:17;23.12;48.39
70676;DHT22;59069;52.242;20.900;2023-07-09T07:20:44;23.22;48.18
70676;DHT22;59069;52.242;20.900;2023-07-09T07:23:09;23.42;47.90
70676;DHT22;59069;52.242;20.900;2023-07-09T07:25:34;23.43;47.21
70676;DHT22;59069;52.242;20.900;2023-07-09T07:28:00;23.55;47.37
70676;DHT22;59069;52.242;20.900;2023-07-09T07:30:25;23.67;47.02
70676;DHT22;59069;52.242;20.900;2023-07-09T07:32:50;23.67;46.36
70676;DHT22;59069;52.242;20.900;2023-07-09T07:35:16;23.73;46.65
70676;DHT22;59069;52.242;20.900;2023-07-09T07:37:42;23.83;46.86
70676;DHT22;59069;52.242;20.900;2023-07-09T07:40:09;23.96;46.48
70676;DHT22;59069;52.242;20.900;2023-07-09T07:42:35;24.04;45.91
70676;DHT22;59069;52.242;20.900;2023-07-09T07:45:01;24.24;46.43
70676;DHT22;59069;52.242;20.900;2023-07-09T07:47:26;24.37;45.21
70676;DHT22;59069;52.242;20.900;2023-07-09T07:49:55;24.52;45.25
70676;DHT22;59069;52.242;20.900;2023-07-09T07:52:21;24.58;44.19
70676;DHT22;59069;52.242;20.900;2023-07-09T07:54:46;24.58;43.63
70676;DHT22;59069;52.242;20.900;2023-07-09T07:57:12;24.55;43.21
70676;DHT22;59069;52.242;20.900;2023-07-09T07:59:37;24.51;43.34
70676;DHT22;59069;52.242;20.900;2023-07-09T08:02:04;24.48;43.16
70676;DHT22;59069;52.242;20.900;2023-07-09T08:04:31;24.58;42.84
70676;DHT22;59069;52.242;20.900;2023-07-09T08:06:56;24.54;42.57
70676;DHT22;59069;52.242;20.900;2023-07-09T08:09:22;24.52;42.78
70676;DHT22;59069;52.242;20.900;2023-07-09T08:11:47;24.64;43.14
70676;DHT22;59069;52.242;20.900;2023-07-09T08:14:14;24.86;43.37
70676;DHT22;59069;52.242;20.900;2023-07-09T08:16:40;25.18;43.32
70676;DHT22;59069;52.242;20.900;2023-07-09T08:19:05;25.44;42.65
70676;DHT22;59069;52.242;20.900;2023-07-09T08:21:31;25.61;42.04
70676;DHT22;59069;52.242;20.900;2023-07-09T08:23:56;25.68;40.40
70676;DHT22;59069;52.242;20.900;2023-07-09T08:26:22;25.66;39.96
70676;DHT22;59069;52.242;20.900;2023-07-09T08:28:49;25.56;39.31
70676;DHT22;59069;52.242;20.900;2023-07-09T08:31:15;25.46;38.87
70676;DHT22;59069;52.242;20.900;2023-07-09T08:33:40;25.34;38.94
70676;DHT22;59069;52.242;20.900;2023-07-09T08:36:06;25.29;39.13
70676;DHT22;59069;52.242;20.900;2023-07-09T08:38:32;25.37;39.74
70676;DHT22;59069;52.242;20.900;2023-07-09T08:41:08;25.50;39.72
70676;DHT22;59069;52.242;20.900;2023-07-09T08:52:32;25.64;37.22
70676;DHT22;59069;52.242;20.900;2023-07-09T08:55:03;25.60;36.76
70676;DHT22;59069;52.242;20.900;2023-07-09T08:57:34;25.57;36.60
70676;DHT22;59069;52.242;20.900;2023-07-09T09:00:07;25.56;36.16
70676;DHT22;59069;52.242;20.900;2023-07-09T09:02:46;25.49;35.80
70676;DHT22;59069;52.242;20.900;2023-07-09T09:05:18;25.41;36.14
70676;DHT22;59069;52.242;20.900;2023-07-09T09:07:44;25.43;36.84
70676;DHT22;59069;52.242;20.900;2023-07-09T09:10:18;25.61;36.72
70676;DHT22;59069;52.242;20.900;2023-07-09T09:13:02;25.71;36.18
70676;DHT22;59069;52.242;20.900;2023-07-09T09:15:30;25.84;36.36
70676;DHT22;59069;52.242;20.900;2023-07-09T09:18:17;25.88;36.14
70676;DHT22;59069;52.242;20.900;2023-07-09T09:20:44;25.98;36.34
70676;DHT22;59069;52.242;20.900;2023-07-09T09:23:13;26.15;36.06
70676;DHT22;59069;52.242;20.900;2023-07-09T09:25:42;26.36;36.04
70676;DHT22;59069;52.242;20.900;2023-07-09T09:28:09;26.48;35.72
70676;DHT22;59069;52.242;20.900;2023-07-09T09:30:35;26.46;34.77
70676;DHT22;59069;52.242;20.900;2023-07-09T09:33:04;26.41;34.10
70676;DHT22;59069;52.242;20.900;2023-07-09T09:35:35;26.32;33.86
70676;DHT22;59069;52.242;20.900;2023-07-09T09:38:02;26.29;33.72
70676;DHT22;59069;52.242;20.900;2023-07-09T09:40:33;26.31;33.88
70676;DHT22;59069;52.242;20.900;2023-07-09T09:42:59;26.42;34.46
70676;DHT22;59069;52.242;20.900;2023-07-09T09:45:33;26.60;34.55
70676;DHT22;59069;52.242;20.900;2023-07-09T09:48:03;26.70;34.01
70676;DHT22;59069;52.242;20.900;2023-07-09T09:50:35;26.78;34.07
70676;DHT22;59069;52.242;20.900;2023-07-09T09:53:01;26.78;33.46
70676;DHT22;59069;52.242;20.900;2023-07-09T09:55:31;26.73;33.52
70676;DHT22;59069;52.242;20.900;2023-07-09T09:57:58;26.66;33.52
70676;DHT22;59069;52.242;20.900;2023-07-09T10:00:28;26.68;33.45
70676;DHT22;59069;52.242;20.900;2023-07-09T10:03:02;26.59;33.47
70676;DHT22;59069;52.242;20.900;2023-07-09T10:05:56;26.48;33.77
70676;DHT22;59069;52.242;20.900;2023-07-09T10:08:38;26.41;33.84
70676;DHT22;59069;52.242;20.900;2023-07-09T10:11:22;26.45;34.16
70676;DHT22;59069;52.242;20.900;2023-07-09T10:13:50;26.46;34.09
70676;DHT22;59069;52.242;20.900;2023-07-09T10:16:25;26.46;34.02
70676;DHT22;59069;52.242;20.900;2023-07-09T10:19:14;26.46;33.60
70676;DHT22;59069;52.242;20.900;2023-07-09T10:21:58;26.42;33.27
70676;DHT22;59069;52.242;20.900;2023-07-09T10:27:02;26.48;33.00
70676;DHT22;59069;52.242;20.900;2023-07-09T10:32:29;26.52;32.92
70676;DHT22;59069;52.242;20.900;2023-07-09T10:35:26;26.57;33.23
70676;DHT22;59069;52.242;20.900;2023-07-09T10:38:00;26.70;33.17
70676;DHT22;59069;52.242;20.900;2023-07-09T10:40:38;26.79;32.65
70676;DHT22;59069;52.242;20.900;2023-07-09T10:43:05;26.83;31.96
70676;DHT22;59069;52.242;20.900;2023-07-09T10:45:43;26.90;31.99
70676;DHT22;59069;52.242;20.900;2023-07-09T10:48:14;26.93;31.88
70676;DHT22;59069;52.242;20.900;2023-07-09T10:50:47;26.99;31.85
70676;DHT22;59069;52.242;20.900;2023-07-09T10:53:30;27.07;31.64
70676;DHT22;59069;52.242;20.900;2023-07-09T10:56:19;27.11;31.83
70676;DHT22;59069;52.242;20.900;2023-07-09T11:01:40;27.34;31.59
70676;DHT22;59069;52.242;20.900;2023-07-09T11:04:15;27.44;31.05
70676;DHT22;59069;52.242;20.900;2023-07-09T11:06:46;27.52;31.16
70676;DHT22;59069;52.242;20.900;2023-07-09T11:09:33;27.59;30.95
70676;DHT22;59069;52.242;20.900;2023-07-09T11:12:05;27.66;31.04
70676;DHT22;59069;52.242;20.900;2023-07-09T11:17:13;27.82;30.81
70676;DHT22;59069;52.242;20.900;2023-07-09T11:19:45;27.92;30.58
70676;DHT22;59069;52.242;20.900;2023-07-09T11:22:41;27.92;30.39
70676;DHT22;59069;52.242;20.900;2023-07-09T11:25:15;28.01;30.38
70676;DHT22;59069;52.242;20.900;2023-07-09T11:27:54;28.10;29.85
70676;DHT22;59069;52.242;20.900;2023-07-09T11:30:28;28.20;30.23
70676;DHT22;59069;52.242;20.900;2023-07-09T11:32:58;28.39;30.00
70676;DHT22;59069;52.242;20.900;2023-07-09T11:35:29;28.49;29.54
70676;DHT22;59069;52.242;20.900;2023-07-09T11:37:55;28.63;30.04
70676;DHT22;59069;52.242;20.900;2023-07-09T11:40:24;28.73;29.49
70676;DHT22;59069;52.242;20.900;2023-07-09T11:45:27;28.84;29.39
70676;DHT22;59069;52.242;20.900;2023-07-09T11:50:32;29.35;28.93
70676;DHT22;59069;52.242;20.900;2023-07-09T11:53:04;29.45;27.85
70676;DHT22;59069;52.242;20.900;2023-07-09T11:55:45;29.53;28.20
70676;DHT22;59069;52.242;20.900;2023-07-09T11:58:13;29.53;27.91
70676;DHT22;59069;52.242;20.900;2023-07-09T12:00:46;29.59;27.21
70676;DHT22;59069;52.242;20.900;2023-07-09T12:03:34;29.63;27.25
70676;DHT22;59069;52.242;20.900;2023-07-09T12:06:15;29.63;26.98
70676;DHT22;59069;52.242;20.900;2023-07-09T12:08:42;29.65;27.15
70676;DHT22;59069;52.242;20.900;2023-07-09T12:11:23;29.62;26.01
70676;DHT22;59069;52.242;20.900;2023-07-09T12:13:49;29.53;26.07
70676;DHT22;59069;52.242;20.900;2023-07-09T12:16:36;29.43;27.06
70676;DHT22;59069;52.242;20.900;2023-07-09T12:19:03;29.42;27.69
70676;DHT22;59069;52.242;20.900;2023-07-09T12:21:30;29.46;27.37
70676;DHT22;59069;52.242;20.900;2023-07-09T12:23:56;29.52;27.27
70676;DHT22;59069;52.242;20.900;2023-07-09T12:26:22;29.53;27.04
70676;DHT22;59069;52.242;20.900;2023-07-09T12:28:56;29.61;26.97
70676;DHT22;59069;52.242;20.900;2023-07-09T12:31:29;29.73;26.78
70676;DHT22;59069;52.242;20.900;2023-07-09T12:33:57;29.87;26.55
70676;DHT22;59069;52.242;20.900;2023-07-09T12:36:24;29.99;26.69
70676;DHT22;59069;52.242;20.900;2023-07-09T12:38:55;30.16;26.67
70676;DHT22;59069;52.242;20.900;2023-07-09T12:41:33;30.21;26.69
70676;DHT22;59069;52.242;20.900;2023-07-09T12:44:00;30.24;26.68
70676;DHT22;59069;52.242;20.900;2023-07-09T12:46:25;30.21;26.67
70676;DHT22;59069;52.242;20.900;2023-07-09T12:48:54;30.16;27.03
70676;DHT22;59069;52.242;20.900;2023-07-09T12:51:22;30.18;26.95
70676;DHT22;59069;52.242;20.900;2023-07-09T12:54:03;30.16;26.93
70676;DHT22;59069;52.242;20.900;2023-07-09T12:56:28;30.21;26.65
70676;DHT22;59069;52.242;20.900;2023-07-09T12:58:56;30.16;26.67
70676;DHT22;59069;52.242;20.900;2023-07-09T13:01:23;30.14;26.53
70676;DHT22;59069;52.242;20.900;2023-07-09T13:03:54;30.04;26.82
70676;DHT22;59069;52.242;20.900;2023-07-09T13:06:34;30.12;26.99
70676;DHT22;59069;52.242;20.900;2023-07-09T13:09:00;30.10;26.27
70676;DHT22;59069;52.242;20.900;2023-07-09T13:11:34;30.03;26.52
70676;DHT22;59069;52.242;20.900;2023-07-09T13:14:04;30.00;26.93
70676;DHT22;59069;52.242;20.900;2023-07-09T13:16:30;30.00;26.62
70676;DHT22;59069;52.242;20.900;2023-07-09T13:18:56;29.97;26.54
70676;DHT22;59069;52.242;20.900;2023-07-09T13:21:22;29.97;26.88
70676;DHT22;59069;52.242;20.900;2023-07-09T13:23:48;30.02;26.86
70676;DHT22;59069;52.242;20.900;2023-07-09T13:26:14;30.06;27.20
70676;DHT22;59069;52.242;20.900;2023-07-09T13:28:41;30.13;27.31
70676;DHT22;59069;52.242;20.900;2023-07-09T13:31:13;30.13;27.11
70676;DHT22;59069;52.242;20.900;2023-07-09T13:33:40;30.20;27.02
70676;DHT22;59069;52.242;20.900;2023-07-09T13:36:06;30.28;26.92
70676;DHT22;59069;52.242;20.900;2023-07-09T13:38:32;30.34;26.95
70676;DHT22;59069;52.242;20.900;2023-07-09T13:41:01;30.43;26.88
70676;DHT22;59069;52.242;20.900;2023-07-09T13:43:30;30.54;26.96
70676;DHT22;59069;52.242;20.900;2023-07-09T13:45:56;30.63;26.75
70676;DHT22;59069;52.242;20.900;2023-07-09T13:48:23;30.72;25.98
70676;DHT22;59069;52.242;20.900;2023-07-09T13:50:50;30.71;25.87
70676;DHT22;59069;52.242;20.900;2023-07-09T13:53:20;30.74;25.56
70676;DHT22;59069;52.242;20.900;2023-07-09T13:55:47;30.69;25.97
70676;DHT22;59069;52.242;20.900;2023-07-09T13:58:15;30.76;25.70
70676;DHT22;59069;52.242;20.900;2023-07-09T14:00:42;30.74;25.78
70676;DHT22;59069;52.242;20.900;2023-07-09T14:03:28;30.67;25.86
70676;DHT22;59069;52.242;20.900;2023-07-09T14:05:55;30.61;25.92
70676;DHT22;59069;52.242;20.900;2023-07-09T14:08:21;30.58;26.42
70676;DHT22;59069;52.242;20.900;2023-07-09T14:10:47;30.55;26.56
70676;DHT22;59069;52.242;20.900;2023-07-09T14:13:18;30.61;26.24
70676;DHT22;59069;52.242;20.900;2023-07-09T14:15:44;30.63;26.11
70676;DHT22;59069;52.242;20.900;2023-07-09T14:18:15;30.71;26.27
70676;DHT22;59069;52.242;20.900;2023-07-09T14:20:41;30.75;25.93
70676;DHT22;59069;52.242;20.900;2023-07-09T14:23:12;30.84;26.17
70676;DHT22;59069;52.242;20.900;2023-07-09T14:25:37;30.88;25.84
70676;DHT22;59069;52.242;20.900;2023-07-09T14:28:12;30.84;26.23
70676;DHT22;59069;52.242;20.900;2023-07-09T14:30:38;30.76;26.13
70676;DHT22;59069;52.242;20.900;2023-07-09T14:33:04;30.72;26.60
70676;DHT22;59069;52.242;20.900;2023-07-09T14:35:30;30.61;26.69
70676;DHT22;59069;52.242;20.900;2023-07-09T14:37:55;30.64;26.93
70676;DHT22;59069;52.242;20.900;2023-07-09T14:40:21;30.61;25.96
70676;DHT22;59069;52.242;20.900;2023-07-09T14:42:48;30.49;26.46
70676;DHT22;59069;52.242;20.900;2023-07-09T14:45:20;30.51;26.71
70676;DHT22;59069;52.242;20.900;2023-07-09T14:47:46;30.45;26.64
70676;DHT22;59069;52.242;20.900;2023-07-09T14:50:11;30.37;26.39
70676;DHT22;59069;52.242;20.900;2023-07-09T14:52:37;30.41;26.37
70676;DHT22;59069;52.242;20.900;2023-07-09T14:55:04;30.45;26.39
70676;DHT22;59069;52.242;20.900;2023-07-09T14:57:29;30.47;26.36
70676;DHT22;59069;52.242;20.900;2023-07-09T14:59:56;30.48;25.85
70676;DHT22;59069;52.242;20.900;2023-07-09T15:02:35;30.43;25.73
70676;DHT22;59069;52.242;20.900;2023-07-09T15:05:03;30.38;25.98
70676;DHT22;59069;52.242;20.900;2023-07-09T15:07:28;30.28;26.07
70676;DHT22;59069;52.242;20.900;2023-07-09T15:09:59;30.24;26.05
70676;DHT22;59069;52.242;20.900;2023-07-09T15:12:33;30.24;26.07
70676;DHT22;59069;52.242;20.900;2023-07-09T15:15:06;30.30;26.52
70676;DHT22;59069;52.242;20.900;2023-07-09T15:17:36;30.30;26.17
70676;DHT22;59069;52.242;20.900;2023-07-09T15:20:02;30.31;26.08
70676;DHT22;59069;52.242;20.900;2023-07-09T15:22:32;30.25;26.26
70676;DHT22;59069;52.242;20.900;2023-07-09T15:24:58;30.13;25.81
70676;DHT22;59069;52.242;20.900;2023-07-09T15:27:24;30.07;26.62
70676;DHT22;59069;52.242;20.900;2023-07-09T15:29:50;29.99;26.24
70676;DHT22;59069;52.242;20.900;2023-07-09T15:32:16;29.94;26.66
70676;DHT22;59069;52.242;20.900;2023-07-09T15:34:41;29.93;27.14
70676;DHT22;59069;52.242;20.900;2023-07-09T15:37:16;29.96;26.45
70676;DHT22;59069;52.242;20.900;2023-07-09T15:39:42;29.93;26.54
70676;DHT22;59069;52.242;20.900;2023-07-09T15:42:12;29.90;26.47
70676;DHT22;59069;52.242;20.900;2023-07-09T15:44:39;29.80;26.23
70676;DHT22;59069;52.242;20.900;2023-07-09T15:47:05;29.56;26.51
70676;DHT22;59069;52.242;20.900;2023-07-09T15:49:31;29.42;27.17
70676;DHT22;59069;52.242;20.900;2023-07-09T15:51:57;29.36;27.38
70676;DHT22;59069;52.242;20.900;2023-07-09T15:54:23;29.35;27.52